Edenville, MI

10:13 AM EDT on October 14, 2019 (GMT -0400)
Wobbly Bob's | | Change Station
Active Advisory: Frost Advisory

Elev 679 ft 43.77 °N, 84.39 °W | Updated 15 seconds ago

Clear
Clear
39.4 °F
Feels Like 39 °F
N
0
Wind Variable Wind from East
Gusts 0.0 mph

Today
High -- | Low -- °F
--% Chance of Precip.
Yesterday
High -- | Low -- °F
Precip. -- in
Pressure 29.99 in
Visibility 10.0 miles
Clouds Clear
Windchill 39 °F
Dew Point 39 °F
Humidity 99%
Rainfall 0.00 in
Snow Depth Not available.
7:50 AM 6:55 PM
Full, 100% visible
METAR KIKW 141356Z AUTO 26005KT 10SM CLR 07/02 A2999 RMK AO2 T00680016
Pressure 29.99 in
Visibility 10.0 miles
Clouds Clear
Windchill 39 °F
Dew Point 39 °F
Humidity 99%
Rainfall 0.00 in
Snow Depth Not available.
7:50 AM 6:55 PM
Full, 100% visible
METAR KIKW 141356Z AUTO 26005KT 10SM CLR 07/02 A2999 RMK AO2 T00680016

Get Your Daily Forecast Email!

Thanks for signing up!

Be on the lookout for a verification email in your inbox.

You'll start receiving severe weather alerts in your inbox..

×

10-Day Weather Forecast

Almanac

Astronomy

Oct. 14, 2019 Rise Set
Actual Time
Civil Twilight
Nautical Twilight
Astronomical Twilight
Moon
Length of Visible Light
Length of Day
Tomorrow will be .
, % of the Moon is Illuminated

Today's Extremes

State Highs State Lows

Community

WunderPhotos

Category 6

Welcome to Category 6. This is the collective home for Weather Underground's featured writeups by Dr. Jeff Masters (right), Bob Henson (left), Chris Burt, and other regular contributors.

Nearby

Air Quality

  Air Quality AQ Index Pollutant
Not available.

Snow Depth

Station Depth Elevation

Earthquake Activity

City Distance Mag. Time & Date
Minimum magnitude displayed is 2.5.

Coastal Water Temperatures

Place Temperature

Stations

Nearby Weather Stations

Station Location Temp. Windchill Dew Point Humidity Wind Precip. Elev Updated Type
                   

Watches & Warnings

Frost Advisory
Issued: 3:04 AM EDT Oct. 14, 2019 – National Weather Service

... Frost advisory in effect from 2 am to 8 am EDT Tuesday...

* what... temperatures in the mid 30s will result in frost
formation.

* Where... Southeast Michigan.

* When... from 2 am to 8 am EDT Tuesday.

* Impacts... frost could kill sensitive outdoor vegetation if left
uncovered.

Precautionary/preparedness actions...

Take steps now to protect tender plants from the cold.




304 am EDT Mon Oct 14 2019

... Frost advisory in effect from 2 am to 8 am EDT Tuesday...

* what... temperatures in the mid 30s will result in frost
formation.

* Where... Southeast Michigan.

* When... from 2 am to 8 am EDT Tuesday.

* Impacts... frost could kill sensitive outdoor vegetation if left
uncovered.

Precautionary/preparedness actions...

Take steps now to protect tender plants from the cold.